sensor_id;sensor_type;location;lat;lon;timestamp;P1;durP1;ratioP1;P2;durP2;ratioP2
67585;SDS011;55785;47.946;20.540;2023-07-24T00:01:47;4.97;;;2.00;;
67585;SDS011;55785;47.946;20.540;2023-07-24T00:04:13;3.20;;;1.88;;
67585;SDS011;55785;47.946;20.540;2023-07-24T00:06:38;4.20;;;2.13;;
67585;SDS011;55785;47.946;20.540;2023-07-24T00:09:03;2.95;;;1.90;;
67585;SDS011;55785;47.946;20.540;2023-07-24T00:11:29;4.78;;;2.25;;
67585;SDS011;55785;47.946;20.540;2023-07-24T00:13:54;4.28;;;2.08;;
67585;SDS011;55785;47.946;20.540;2023-07-24T00:16:19;5.22;;;2.15;;
67585;SDS011;55785;47.946;20.540;2023-07-24T00:18:45;4.30;;;2.20;;
67585;SDS011;55785;47.946;20.540;2023-07-24T00:21:10;5.05;;;2.53;;
67585;SDS011;55785;47.946;20.540;2023-07-24T00:23:35;6.13;;;2.08;;
67585;SDS011;55785;47.946;20.540;2023-07-24T00:26:01;3.20;;;2.00;;
67585;SDS011;55785;47.946;20.540;2023-07-24T00:28:26;3.85;;;2.13;;
67585;SDS011;55785;47.946;20.540;2023-07-24T00:30:52;5.72;;;2.20;;
67585;SDS011;55785;47.946;20.540;2023-07-24T00:33:17;4.47;;;1.90;;
67585;SDS011;55785;47.946;20.540;2023-07-24T00:35:42;5.82;;;2.10;;
67585;SDS011;55785;47.946;20.540;2023-07-24T00:38:08;4.50;;;1.90;;
67585;SDS011;55785;47.946;20.540;2023-07-24T00:40:33;7.60;;;2.42;;
67585;SDS011;55785;47.946;20.540;2023-07-24T00:42:59;4.38;;;2.20;;
67585;SDS011;55785;47.946;20.540;2023-07-24T00:45:24;3.28;;;2.05;;
67585;SDS011;55785;47.946;20.540;2023-07-24T00:47:50;4.85;;;2.03;;
67585;SDS011;55785;47.946;20.540;2023-07-24T00:50:16;2.88;;;1.73;;
67585;SDS011;55785;47.946;20.540;2023-07-24T00:52:42;7.55;;;2.15;;
67585;SDS011;55785;47.946;20.540;2023-07-24T00:55:07;5.20;;;2.20;;
67585;SDS011;55785;47.946;20.540;2023-07-24T00:57:35;3.75;;;2.20;;
67585;SDS011;55785;47.946;20.540;2023-07-24T01:00:01;5.22;;;2.08;;
67585;SDS011;55785;47.946;20.540;2023-07-24T01:02:26;4.65;;;2.08;;
67585;SDS011;55785;47.946;20.540;2023-07-24T01:04:52;4.53;;;2.00;;
67585;SDS011;55785;47.946;20.540;2023-07-24T01:07:17;4.35;;;2.20;;
67585;SDS011;55785;47.946;20.540;2023-07-24T01:09:43;4.63;;;2.00;;
67585;SDS011;55785;47.946;20.540;2023-07-24T01:15:26;4.13;;;2.20;;
67585;SDS011;55785;47.946;20.540;2023-07-24T01:18:00;4.38;;;1.90;;
67585;SDS011;55785;47.946;20.540;2023-07-24T01:20:28;3.83;;;2.00;;
67585;SDS011;55785;47.946;20.540;2023-07-24T01:23:04;3.60;;;2.15;;
67585;SDS011;55785;47.946;20.540;2023-07-24T01:25:57;3.97;;;2.17;;
67585;SDS011;55785;47.946;20.540;2023-07-24T01:28:24;3.20;;;1.95;;
67585;SDS011;55785;47.946;20.540;2023-07-24T01:30:50;3.15;;;1.80;;
67585;SDS011;55785;47.946;20.540;2023-07-24T01:33:15;3.72;;;2.40;;
67585;SDS011;55785;47.946;20.540;2023-07-24T01:35:41;5.25;;;2.30;;
67585;SDS011;55785;47.946;20.540;2023-07-24T01:38:08;2.80;;;1.90;;
67585;SDS011;55785;47.946;20.540;2023-07-24T01:40:35;2.83;;;1.90;;
67585;SDS011;55785;47.946;20.540;2023-07-24T01:43:00;5.75;;;2.13;;
67585;SDS011;55785;47.946;20.540;2023-07-24T01:45:26;3.95;;;2.15;;
67585;SDS011;55785;47.946;20.540;2023-07-24T01:47:51;3.65;;;2.17;;
67585;SDS011;55785;47.946;20.540;2023-07-24T01:50:17;4.38;;;2.10;;
67585;SDS011;55785;47.946;20.540;2023-07-24T01:52:42;2.95;;;2.05;;
67585;SDS011;55785;47.946;20.540;2023-07-24T01:55:07;4.00;;;1.98;;
67585;SDS011;55785;47.946;20.540;2023-07-24T01:57:33;4.70;;;2.10;;
67585;SDS011;55785;47.946;20.540;2023-07-24T01:59:58;3.35;;;2.15;;
67585;SDS011;55785;47.946;20.540;2023-07-24T02:02:24;4.00;;;2.20;;
67585;SDS011;55785;47.946;20.540;2023-07-24T02:04:49;4.68;;;2.20;;
67585;SDS011;55785;47.946;20.540;2023-07-24T02:07:14;3.97;;;2.20;;
67585;SDS011;55785;47.946;20.540;2023-07-24T02:09:40;4.43;;;2.13;;
67585;SDS011;55785;47.946;20.540;2023-07-24T02:12:05;5.25;;;2.17;;
67585;SDS011;55785;47.946;20.540;2023-07-24T02:14:31;3.72;;;2.10;;
67585;SDS011;55785;47.946;20.540;2023-07-24T02:16:56;4.53;;;2.00;;
67585;SDS011;55785;47.946;20.540;2023-07-24T02:19:22;4.28;;;2.20;;
67585;SDS011;55785;47.946;20.540;2023-07-24T02:21:47;4.43;;;2.20;;
67585;SDS011;55785;47.946;20.540;2023-07-24T02:24:12;3.97;;;2.08;;
67585;SDS011;55785;47.946;20.540;2023-07-24T02:26:38;3.05;;;2.17;;
67585;SDS011;55785;47.946;20.540;2023-07-24T02:29:03;3.58;;;2.20;;
67585;SDS011;55785;47.946;20.540;2023-07-24T02:31:28;4.93;;;2.25;;
67585;SDS011;55785;47.946;20.540;2023-07-24T02:33:54;3.75;;;2.10;;
67585;SDS011;55785;47.946;20.540;2023-07-24T02:36:19;3.63;;;2.25;;
67585;SDS011;55785;47.946;20.540;2023-07-24T02:38:44;3.72;;;2.10;;
67585;SDS011;55785;47.946;20.540;2023-07-24T02:41:10;4.82;;;2.40;;
67585;SDS011;55785;47.946;20.540;2023-07-24T02:43:35;4.07;;;2.08;;
67585;SDS011;55785;47.946;20.540;2023-07-24T02:46:01;3.92;;;2.30;;
67585;SDS011;55785;47.946;20.540;2023-07-24T02:48:26;3.78;;;2.22;;
67585;SDS011;55785;47.946;20.540;2023-07-24T02:50:52;4.65;;;2.40;;
67585;SDS011;55785;47.946;20.540;2023-07-24T02:53:17;4.13;;;2.28;;
67585;SDS011;55785;47.946;20.540;2023-07-24T02:55:43;4.00;;;2.22;;
67585;SDS011;55785;47.946;20.540;2023-07-24T02:58:08;4.70;;;2.35;;
67585;SDS011;55785;47.946;20.540;2023-07-24T03:00:34;3.55;;;2.33;;
67585;SDS011;55785;47.946;20.540;2023-07-24T03:02:59;4.47;;;2.38;;
67585;SDS011;55785;47.946;20.540;2023-07-24T03:05:24;4.00;;;1.98;;
67585;SDS011;55785;47.946;20.540;2023-07-24T03:07:50;3.58;;;1.92;;
67585;SDS011;55785;47.946;20.540;2023-07-24T03:10:15;3.65;;;2.33;;
67585;SDS011;55785;47.946;20.540;2023-07-24T03:12:41;4.00;;;2.17;;
67585;SDS011;55785;47.946;20.540;2023-07-24T03:15:06;4.47;;;2.40;;
67585;SDS011;55785;47.946;20.540;2023-07-24T03:17:32;3.25;;;2.10;;
67585;SDS011;55785;47.946;20.540;2023-07-24T03:19:57;9.55;;;2.50;;
67585;SDS011;55785;47.946;20.540;2023-07-24T03:22:23;3.38;;;2.08;;
67585;SDS011;55785;47.946;20.540;2023-07-24T03:24:48;4.97;;;1.95;;
67585;SDS011;55785;47.946;20.540;2023-07-24T03:27:13;2.80;;;1.85;;
67585;SDS011;55785;47.946;20.540;2023-07-24T03:29:39;4.50;;;2.38;;
67585;SDS011;55785;47.946;20.540;2023-07-24T03:32:04;3.47;;;2.10;;
67585;SDS011;55785;47.946;20.540;2023-07-24T03:34:30;3.75;;;2.15;;
67585;SDS011;55785;47.946;20.540;2023-07-24T03:36:55;5.18;;;2.40;;
67585;SDS011;55785;47.946;20.540;2023-07-24T03:39:20;6.13;;;2.25;;
67585;SDS011;55785;47.946;20.540;2023-07-24T03:41:46;4.47;;;2.20;;
67585;SDS011;55785;47.946;20.540;2023-07-24T03:44:11;3.03;;;2.10;;
67585;SDS011;55785;47.946;20.540;2023-07-24T03:46:36;3.53;;;2.05;;
67585;SDS011;55785;47.946;20.540;2023-07-24T03:49:02;3.95;;;2.28;;
67585;SDS011;55785;47.946;20.540;2023-07-24T03:51:27;3.35;;;2.17;;
67585;SDS011;55785;47.946;20.540;2023-07-24T03:53:52;4.57;;;2.50;;
67585;SDS011;55785;47.946;20.540;2023-07-24T03:56:18;4.68;;;2.22;;
67585;SDS011;55785;47.946;20.540;2023-07-24T03:58:43;4.05;;;2.47;;
67585;SDS011;55785;47.946;20.540;2023-07-24T04:01:09;4.55;;;2.30;;
67585;SDS011;55785;47.946;20.540;2023-07-24T04:03:35;4.13;;;2.00;;
67585;SDS011;55785;47.946;20.540;2023-07-24T04:06:00;3.60;;;2.08;;
67585;SDS011;55785;47.946;20.540;2023-07-24T04:08:26;6.60;;;2.88;;
67585;SDS011;55785;47.946;20.540;2023-07-24T04:10:51;4.45;;;2.30;;
67585;SDS011;55785;47.946;20.540;2023-07-24T04:13:17;5.13;;;2.40;;
67585;SDS011;55785;47.946;20.540;2023-07-24T04:15:42;4.75;;;2.40;;
67585;SDS011;55785;47.946;20.540;2023-07-24T04:18:07;4.28;;;2.20;;
67585;SDS011;55785;47.946;20.540;2023-07-24T04:20:33;8.32;;;2.30;;
67585;SDS011;55785;47.946;20.540;2023-07-24T04:22:58;3.83;;;2.20;;
67585;SDS011;55785;47.946;20.540;2023-07-24T04:25:23;3.78;;;2.17;;
67585;SDS011;55785;47.946;20.540;2023-07-24T04:27:49;4.57;;;2.10;;
67585;SDS011;55785;47.946;20.540;2023-07-24T04:30:14;4.60;;;2.30;;
67585;SDS011;55785;47.946;20.540;2023-07-24T04:32:39;3.53;;;2.00;;
67585;SDS011;55785;47.946;20.540;2023-07-24T04:35:05;4.55;;;2.20;;
67585;SDS011;55785;47.946;20.540;2023-07-24T04:37:31;4.32;;;2.13;;
67585;SDS011;55785;47.946;20.540;2023-07-24T04:39:56;4.18;;;2.30;;
67585;SDS011;55785;47.946;20.540;2023-07-24T04:42:22;6.22;;;2.15;;
67585;SDS011;55785;47.946;20.540;2023-07-24T04:44:47;4.18;;;2.05;;
67585;SDS011;55785;47.946;20.540;2023-07-24T04:47:12;3.40;;;2.20;;
67585;SDS011;55785;47.946;20.540;2023-07-24T04:49:38;3.67;;;2.30;;
67585;SDS011;55785;47.946;20.540;2023-07-24T04:52:03;4.05;;;2.60;;
67585;SDS011;55785;47.946;20.540;2023-07-24T04:54:29;5.80;;;2.25;;
67585;SDS011;55785;47.946;20.540;2023-07-24T04:56:54;5.68;;;2.17;;
67585;SDS011;55785;47.946;20.540;2023-07-24T04:59:20;6.90;;;2.13;;
67585;SDS011;55785;47.946;20.540;2023-07-24T05:01:45;8.27;;;2.10;;
67585;SDS011;55785;47.946;20.540;2023-07-24T05:04:10;5.45;;;2.17;;
67585;SDS011;55785;47.946;20.540;2023-07-24T05:06:36;4.72;;;2.20;;
67585;SDS011;55785;47.946;20.540;2023-07-24T05:09:01;3.17;;;2.03;;
67585;SDS011;55785;47.946;20.540;2023-07-24T05:11:27;4.82;;;2.42;;
67585;SDS011;55785;47.946;20.540;2023-07-24T05:13:52;4.10;;;1.98;;
67585;SDS011;55785;47.946;20.540;2023-07-24T05:16:17;3.85;;;2.40;;
67585;SDS011;55785;47.946;20.540;2023-07-24T05:18:43;4.18;;;2.10;;
67585;SDS011;55785;47.946;20.540;2023-07-24T05:21:08;4.18;;;2.30;;
67585;SDS011;55785;47.946;20.540;2023-07-24T05:23:33;6.72;;;2.38;;
67585;SDS011;55785;47.946;20.540;2023-07-24T05:25:59;4.30;;;2.40;;
67585;SDS011;55785;47.946;20.540;2023-07-24T05:28:26;6.30;;;2.40;;
67585;SDS011;55785;47.946;20.540;2023-07-24T05:30:52;5.53;;;2.55;;
67585;SDS011;55785;47.946;20.540;2023-07-24T05:33:18;4.68;;;2.55;;
67585;SDS011;55785;47.946;20.540;2023-07-24T05:35:43;7.82;;;2.70;;
67585;SDS011;55785;47.946;20.540;2023-07-24T05:38:08;3.65;;;2.60;;
67585;SDS011;55785;47.946;20.540;2023-07-24T05:40:34;5.00;;;2.65;;
67585;SDS011;55785;47.946;20.540;2023-07-24T05:42:59;6.88;;;3.03;;
67585;SDS011;55785;47.946;20.540;2023-07-24T05:45:26;6.10;;;2.80;;
67585;SDS011;55785;47.946;20.540;2023-07-24T05:47:51;5.03;;;3.08;;
67585;SDS011;55785;47.946;20.540;2023-07-24T05:50:17;4.22;;;2.80;;
67585;SDS011;55785;47.946;20.540;2023-07-24T05:52:42;4.55;;;2.85;;
67585;SDS011;55785;47.946;20.540;2023-07-24T05:55:08;6.05;;;3.30;;
67585;SDS011;55785;47.946;20.540;2023-07-24T05:57:33;6.10;;;2.97;;
67585;SDS011;55785;47.946;20.540;2023-07-24T05:59:59;4.25;;;2.85;;
67585;SDS011;55785;47.946;20.540;2023-07-24T06:02:24;6.13;;;3.38;;
67585;SDS011;55785;47.946;20.540;2023-07-24T06:04:49;4.82;;;3.22;;
67585;SDS011;55785;47.946;20.540;2023-07-24T06:07:15;5.00;;;3.35;;
67585;SDS011;55785;47.946;20.540;2023-07-24T06:09:40;7.25;;;3.20;;
67585;SDS011;55785;47.946;20.540;2023-07-24T06:12:05;4.85;;;3.00;;
67585;SDS011;55785;47.946;20.540;2023-07-24T06:14:31;4.40;;;3.15;;
67585;SDS011;55785;47.946;20.540;2023-07-24T06:16:56;6.05;;;3.75;;
67585;SDS011;55785;47.946;20.540;2023-07-24T06:19:22;4.97;;;3.30;;
67585;SDS011;55785;47.946;20.540;2023-07-24T06:21:47;5.80;;;3.53;;
67585;SDS011;55785;47.946;20.540;2023-07-24T06:24:12;4.88;;;3.00;;
67585;SDS011;55785;47.946;20.540;2023-07-24T06:26:38;7.45;;;3.67;;
67585;SDS011;55785;47.946;20.540;2023-07-24T06:29:04;6.45;;;3.28;;
67585;SDS011;55785;47.946;20.540;2023-07-24T06:31:29;5.95;;;3.20;;
67585;SDS011;55785;47.946;20.540;2023-07-24T06:33:54;5.43;;;3.25;;
67585;SDS011;55785;47.946;20.540;2023-07-24T06:36:20;6.28;;;3.22;;
67585;SDS011;55785;47.946;20.540;2023-07-24T06:38:45;7.10;;;3.60;;
67585;SDS011;55785;47.946;20.540;2023-07-24T06:41:10;4.78;;;3.22;;
67585;SDS011;55785;47.946;20.540;2023-07-24T06:43:36;5.25;;;3.28;;
67585;SDS011;55785;47.946;20.540;2023-07-24T06:46:01;5.57;;;3.33;;
67585;SDS011;55785;47.946;20.540;2023-07-24T06:48:26;6.05;;;3.30;;
67585;SDS011;55785;47.946;20.540;2023-07-24T06:50:52;6.38;;;3.45;;
67585;SDS011;55785;47.946;20.540;2023-07-24T06:53:17;4.05;;;3.08;;
67585;SDS011;55785;47.946;20.540;2023-07-24T06:55:42;5.43;;;3.90;;
67585;SDS011;55785;47.946;20.540;2023-07-24T06:58:08;4.53;;;3.40;;
67585;SDS011;55785;47.946;20.540;2023-07-24T07:00:33;5.25;;;3.25;;
67585;SDS011;55785;47.946;20.540;2023-07-24T07:02:59;4.60;;;3.42;;
67585;SDS011;55785;47.946;20.540;2023-07-24T07:05:24;4.57;;;3.35;;
67585;SDS011;55785;47.946;20.540;2023-07-24T07:07:49;4.82;;;3.53;;
67585;SDS011;55785;47.946;20.540;2023-07-24T07:10:15;4.65;;;3.22;;
67585;SDS011;55785;47.946;20.540;2023-07-24T07:12:40;5.63;;;3.47;;
67585;SDS011;55785;47.946;20.540;2023-07-24T07:15:06;6.40;;;3.47;;
67585;SDS011;55785;47.946;20.540;2023-07-24T07:17:31;5.32;;;3.40;;
67585;SDS011;55785;47.946;20.540;2023-07-24T07:19:57;6.22;;;3.20;;
67585;SDS011;55785;47.946;20.540;2023-07-24T07:22:22;5.65;;;3.47;;
67585;SDS011;55785;47.946;20.540;2023-07-24T07:24:47;6.78;;;3.80;;
67585;SDS011;55785;47.946;20.540;2023-07-24T07:27:13;5.43;;;3.60;;
67585;SDS011;55785;47.946;20.540;2023-07-24T07:29:39;5.45;;;3.67;;
67585;SDS011;55785;47.946;20.540;2023-07-24T07:32:04;5.03;;;3.60;;
67585;SDS011;55785;47.946;20.540;2023-07-24T07:34:30;5.05;;;3.45;;
67585;SDS011;55785;47.946;20.540;2023-07-24T07:36:55;5.32;;;3.50;;
67585;SDS011;55785;47.946;20.540;2023-07-24T07:39:21;5.85;;;3.88;;
67585;SDS011;55785;47.946;20.540;2023-07-24T07:41:46;5.70;;;3.63;;
67585;SDS011;55785;47.946;20.540;2023-07-24T07:44:11;6.75;;;4.10;;
67585;SDS011;55785;47.946;20.540;2023-07-24T07:46:37;8.15;;;4.20;;
67585;SDS011;55785;47.946;20.540;2023-07-24T07:49:02;6.18;;;4.07;;
67585;SDS011;55785;47.946;20.540;2023-07-24T07:51:28;6.40;;;4.13;;
67585;SDS011;55785;47.946;20.540;2023-07-24T07:53:53;6.07;;;4.18;;
67585;SDS011;55785;47.946;20.540;2023-07-24T07:56:18;6.88;;;4.65;;
67585;SDS011;55785;47.946;20.540;2023-07-24T07:58:44;7.20;;;4.65;;
67585;SDS011;55785;47.946;20.540;2023-07-24T08:01:09;6.32;;;4.30;;
67585;SDS011;55785;47.946;20.540;2023-07-24T08:03:35;7.05;;;4.38;;
67585;SDS011;55785;47.946;20.540;2023-07-24T08:06:00;7.13;;;4.88;;
67585;SDS011;55785;47.946;20.540;2023-07-24T08:08:25;8.52;;;4.85;;
67585;SDS011;55785;47.946;20.540;2023-07-24T08:10:51;9.98;;;4.90;;
67585;SDS011;55785;47.946;20.540;2023-07-24T08:13:16;8.25;;;4.72;;
67585;SDS011;55785;47.946;20.540;2023-07-24T08:15:41;7.03;;;5.13;;
67585;SDS011;55785;47.946;20.540;2023-07-24T08:18:07;6.85;;;5.03;;
67585;SDS011;55785;47.946;20.540;2023-07-24T08:20:34;8.80;;;5.00;;
67585;SDS011;55785;47.946;20.540;2023-07-24T08:23:01;7.72;;;5.05;;
67585;SDS011;55785;47.946;20.540;2023-07-24T08:25:26;7.38;;;5.10;;
67585;SDS011;55785;47.946;20.540;2023-07-24T08:27:51;7.43;;;4.82;;
67585;SDS011;55785;47.946;20.540;2023-07-24T08:30:17;7.03;;;4.95;;
67585;SDS011;55785;47.946;20.540;2023-07-24T08:32:43;7.75;;;5.20;;
67585;SDS011;55785;47.946;20.540;2023-07-24T08:35:08;11.52;;;5.38;;
67585;SDS011;55785;47.946;20.540;2023-07-24T08:37:33;8.15;;;5.32;;
67585;SDS011;55785;47.946;20.540;2023-07-24T08:39:59;8.18;;;5.70;;
67585;SDS011;55785;47.946;20.540;2023-07-24T08:42:24;6.68;;;5.07;;
67585;SDS011;55785;47.946;20.540;2023-07-24T08:44:50;8.15;;;5.00;;
67585;SDS011;55785;47.946;20.540;2023-07-24T08:47:17;9.30;;;5.47;;
67585;SDS011;55785;47.946;20.540;2023-07-24T08:49:44;7.53;;;5.18;;
67585;SDS011;55785;47.946;20.540;2023-07-24T08:52:11;7.75;;;5.30;;
67585;SDS011;55785;47.946;20.540;2023-07-24T08:54:36;7.28;;;5.40;;
67585;SDS011;55785;47.946;20.540;2023-07-24T08:57:02;7.38;;;5.25;;
67585;SDS011;55785;47.946;20.540;2023-07-24T08:59:31;7.07;;;5.07;;
67585;SDS011;55785;47.946;20.540;2023-07-24T09:01:56;7.40;;;5.40;;
67585;SDS011;55785;47.946;20.540;2023-07-24T09:04:22;8.75;;;5.55;;
67585;SDS011;55785;47.946;20.540;2023-07-24T09:06:47;7.53;;;5.55;;
67585;SDS011;55785;47.946;20.540;2023-07-24T09:09:14;7.10;;;5.32;;
67585;SDS011;55785;47.946;20.540;2023-07-24T09:11:47;7.75;;;4.90;;
67585;SDS011;55785;47.946;20.540;2023-07-24T09:14:26;7.07;;;4.95;;
67585;SDS011;55785;47.946;20.540;2023-07-24T09:17:02;7.32;;;4.70;;
67585;SDS011;55785;47.946;20.540;2023-07-24T09:19:31;6.30;;;4.68;;
67585;SDS011;55785;47.946;20.540;2023-07-24T09:22:07;7.93;;;4.70;;
67585;SDS011;55785;47.946;20.540;2023-07-24T09:24:50;7.77;;;5.10;;
67585;SDS011;55785;47.946;20.540;2023-07-24T09:27:17;7.95;;;5.10;;
67585;SDS011;55785;47.946;20.540;2023-07-24T09:29:43;5.90;;;4.50;;
67585;SDS011;55785;47.946;20.540;2023-07-24T09:32:18;8.18;;;4.50;;
67585;SDS011;55785;47.946;20.540;2023-07-24T09:34:44;6.97;;;4.50;;
67585;SDS011;55785;47.946;20.540;2023-07-24T09:37:09;6.47;;;4.30;;
67585;SDS011;55785;47.946;20.540;2023-07-24T09:39:34;8.27;;;4.55;;
67585;SDS011;55785;47.946;20.540;2023-07-24T09:42:03;6.47;;;4.50;;
67585;SDS011;55785;47.946;20.540;2023-07-24T09:44:30;6.40;;;4.57;;
67585;SDS011;55785;47.946;20.540;2023-07-24T09:46:58;10.07;;;4.68;;
67585;SDS011;55785;47.946;20.540;2023-07-24T09:49:23;8.55;;;4.90;;
67585;SDS011;55785;47.946;20.540;2023-07-24T09:51:49;7.43;;;4.50;;
67585;SDS011;55785;47.946;20.540;2023-07-24T09:54:25;7.32;;;4.93;;
67585;SDS011;55785;47.946;20.540;2023-07-24T09:56:54;7.10;;;4.32;;
67585;SDS011;55785;47.946;20.540;2023-07-24T09:59:20;7.25;;;4.80;;
67585;SDS011;55785;47.946;20.540;2023-07-24T10:01:47;6.60;;;4.10;;
67585;SDS011;55785;47.946;20.540;2023-07-24T10:04:13;7.75;;;4.45;;
67585;SDS011;55785;47.946;20.540;2023-07-24T10:06:41;7.28;;;4.20;;
67585;SDS011;55785;47.946;20.540;2023-07-24T10:09:08;6.63;;;4.47;;
67585;SDS011;55785;47.946;20.540;2023-07-24T10:11:34;8.45;;;4.40;;
67585;SDS011;55785;47.946;20.540;2023-07-24T10:13:59;7.30;;;4.30;;
67585;SDS011;55785;47.946;20.540;2023-07-24T10:16:26;7.13;;;4.45;;
67585;SDS011;55785;47.946;20.540;2023-07-24T10:18:51;8.85;;;4.65;;
67585;SDS011;55785;47.946;20.540;2023-07-24T10:21:17;9.80;;;4.65;;
67585;SDS011;55785;47.946;20.540;2023-07-24T10:23:44;7.93;;;4.85;;
67585;SDS011;55785;47.946;20.540;2023-07-24T10:26:10;8.20;;;4.50;;
67585;SDS011;55785;47.946;20.540;2023-07-24T10:28:39;7.63;;;4.70;;
67585;SDS011;55785;47.946;20.540;2023-07-24T10:31:18;8.05;;;4.88;;
67585;SDS011;55785;47.946;20.540;2023-07-24T10:33:45;8.10;;;5.20;;
67585;SDS011;55785;47.946;20.540;2023-07-24T10:36:11;8.68;;;5.07;;
67585;SDS011;55785;47.946;20.540;2023-07-24T10:38:37;10.40;;;5.13;;
67585;SDS011;55785;47.946;20.540;2023-07-24T10:41:05;10.43;;;5.28;;
67585;SDS011;55785;47.946;20.540;2023-07-24T10:43:44;9.30;;;5.32;;
67585;SDS011;55785;47.946;20.540;2023-07-24T10:46:11;7.75;;;5.00;;
67585;SDS011;55785;47.946;20.540;2023-07-24T10:48:36;8.10;;;5.22;;
67585;SDS011;55785;47.946;20.540;2023-07-24T10:51:09;7.93;;;5.15;;
67585;SDS011;55785;47.946;20.540;2023-07-24T10:53:41;8.65;;;5.03;;
67585;SDS011;55785;47.946;20.540;2023-07-24T10:56:11;8.05;;;5.03;;
67585;SDS011;55785;47.946;20.540;2023-07-24T10:58:36;8.13;;;4.90;;
67585;SDS011;55785;47.946;20.540;2023-07-24T11:01:05;8.13;;;4.70;;
67585;SDS011;55785;47.946;20.540;2023-07-24T11:03:31;7.75;;;5.25;;
67585;SDS011;55785;47.946;20.540;2023-07-24T11:05:57;8.15;;;5.25;;
67585;SDS011;55785;47.946;20.540;2023-07-24T11:08:23;8.68;;;5.18;;
67585;SDS011;55785;47.946;20.540;2023-07-24T11:10:49;8.98;;;5.18;;
67585;SDS011;55785;47.946;20.540;2023-07-24T11:13:15;10.05;;;5.07;;
67585;SDS011;55785;47.946;20.540;2023-07-24T11:15:42;8.63;;;5.10;;
67585;SDS011;55785;47.946;20.540;2023-07-24T11:18:07;8.05;;;5.25;;
67585;SDS011;55785;47.946;20.540;2023-07-24T11:20:33;9.15;;;5.07;;
67585;SDS011;55785;47.946;20.540;2023-07-24T11:22:58;9.73;;;5.65;;
67585;SDS011;55785;47.946;20.540;2023-07-24T11:25:24;9.35;;;5.30;;
67585;SDS011;55785;47.946;20.540;2023-07-24T11:27:49;8.07;;;4.85;;
67585;SDS011;55785;47.946;20.540;2023-07-24T11:30:19;9.18;;;5.30;;
67585;SDS011;55785;47.946;20.540;2023-07-24T11:32:45;9.55;;;5.93;;
67585;SDS011;55785;47.946;20.540;2023-07-24T11:35:11;11.95;;;6.32;;
67585;SDS011;55785;47.946;20.540;2023-07-24T11:37:37;11.65;;;5.18;;
67585;SDS011;55785;47.946;20.540;2023-07-24T11:40:03;10.20;;;5.50;;
67585;SDS011;55785;47.946;20.540;2023-07-24T11:42:30;11.05;;;6.22;;
67585;SDS011;55785;47.946;20.540;2023-07-24T11:44:55;10.15;;;5.53;;
67585;SDS011;55785;47.946;20.540;2023-07-24T11:47:25;9.68;;;5.85;;
67585;SDS011;55785;47.946;20.540;2023-07-24T11:49:57;10.40;;;5.60;;
67585;SDS011;55785;47.946;20.540;2023-07-24T11:52:24;8.93;;;5.70;;
67585;SDS011;55785;47.946;20.540;2023-07-24T11:54:58;10.07;;;5.97;;
67585;SDS011;55785;47.946;20.540;2023-07-24T11:57:24;9.05;;;5.70;;
67585;SDS011;55785;47.946;20.540;2023-07-24T11:59:49;10.82;;;6.20;;
67585;SDS011;55785;47.946;20.540;2023-07-24T12:02:14;10.18;;;5.70;;
67585;SDS011;55785;47.946;20.540;2023-07-24T12:04:40;12.93;;;6.07;;
67585;SDS011;55785;47.946;20.540;2023-07-24T12:07:09;9.50;;;6.10;;
67585;SDS011;55785;47.946;20.540;2023-07-24T12:09:34;9.80;;;5.82;;
67585;SDS011;55785;47.946;20.540;2023-07-24T12:12:00;11.77;;;6.25;;
67585;SDS011;55785;47.946;20.540;2023-07-24T12:14:28;10.05;;;5.97;;
67585;SDS011;55785;47.946;20.540;2023-07-24T12:17:03;12.02;;;6.10;;
67585;SDS011;55785;47.946;20.540;2023-07-24T12:19:29;9.68;;;6.32;;
67585;SDS011;55785;47.946;20.540;2023-07-24T12:21:54;11.75;;;6.10;;
67585;SDS011;55785;47.946;20.540;2023-07-24T12:24:19;9.93;;;6.07;;
67585;SDS011;55785;47.946;20.540;2023-07-24T12:26:45;12.85;;;6.40;;
67585;SDS011;55785;47.946;20.540;2023-07-24T12:29:10;8.85;;;5.90;;
67585;SDS011;55785;47.946;20.540;2023-07-24T12:31:35;11.05;;;6.50;;
67585;SDS011;55785;47.946;20.540;2023-07-24T12:34:01;11.18;;;6.25;;
67585;SDS011;55785;47.946;20.540;2023-07-24T12:36:26;12.10;;;6.72;;
67585;SDS011;55785;47.946;20.540;2023-07-24T12:38:51;11.88;;;6.50;;
67585;SDS011;55785;47.946;20.540;2023-07-24T12:41:17;10.73;;;6.82;;
67585;SDS011;55785;47.946;20.540;2023-07-24T12:43:43;14.65;;;6.53;;
67585;SDS011;55785;47.946;20.540;2023-07-24T12:46:09;13.05;;;6.30;;
67585;SDS011;55785;47.946;20.540;2023-07-24T12:48:34;10.48;;;6.40;;
67585;SDS011;55785;47.946;20.540;2023-07-24T12:50:59;12.77;;;6.65;;
67585;SDS011;55785;47.946;20.540;2023-07-24T12:53:25;12.82;;;6.45;;
67585;SDS011;55785;47.946;20.540;2023-07-24T12:55:50;12.73;;;6.80;;
67585;SDS011;55785;47.946;20.540;2023-07-24T12:58:15;11.63;;;6.15;;
67585;SDS011;55785;47.946;20.540;2023-07-24T13:00:41;11.65;;;6.68;;
67585;SDS011;55785;47.946;20.540;2023-07-24T13:03:06;12.75;;;6.70;;
67585;SDS011;55785;47.946;20.540;2023-07-24T13:05:32;11.55;;;6.53;;
67585;SDS011;55785;47.946;20.540;2023-07-24T13:07:57;14.80;;;6.80;;
67585;SDS011;55785;47.946;20.540;2023-07-24T13:10:23;11.05;;;6.80;;
67585;SDS011;55785;47.946;20.540;2023-07-24T13:12:48;12.40;;;6.53;;
67585;SDS011;55785;47.946;20.540;2023-07-24T13:15:13;10.68;;;6.78;;
67585;SDS011;55785;47.946;20.540;2023-07-24T13:17:39;10.52;;;6.45;;
67585;SDS011;55785;47.946;20.540;2023-07-24T13:20:04;11.75;;;6.60;;
67585;SDS011;55785;47.946;20.540;2023-07-24T13:22:30;11.68;;;6.85;;
67585;SDS011;55785;47.946;20.540;2023-07-24T13:24:56;14.70;;;7.28;;
67585;SDS011;55785;47.946;20.540;2023-07-24T13:27:21;11.20;;;6.60;;
67585;SDS011;55785;47.946;20.540;2023-07-24T13:29:46;11.25;;;6.30;;
67585;SDS011;55785;47.946;20.540;2023-07-24T13:32:12;11.80;;;6.63;;
67585;SDS011;55785;47.946;20.540;2023-07-24T13:34:37;11.98;;;6.75;;
67585;SDS011;55785;47.946;20.540;2023-07-24T13:37:03;12.63;;;6.68;;
67585;SDS011;55785;47.946;20.540;2023-07-24T13:39:28;10.95;;;5.90;;
67585;SDS011;55785;47.946;20.540;2023-07-24T13:41:53;11.10;;;6.05;;
67585;SDS011;55785;47.946;20.540;2023-07-24T13:44:19;11.13;;;6.53;;
67585;SDS011;55785;47.946;20.540;2023-07-24T13:46:44;11.07;;;6.10;;
67585;SDS011;55785;47.946;20.540;2023-07-24T13:49:09;9.60;;;6.20;;
67585;SDS011;55785;47.946;20.540;2023-07-24T13:51:35;10.35;;;6.28;;
67585;SDS011;55785;47.946;20.540;2023-07-24T13:54:00;10.32;;;6.10;;
67585;SDS011;55785;47.946;20.540;2023-07-24T13:56:26;9.05;;;5.55;;
67585;SDS011;55785;47.946;20.540;2023-07-24T13:58:51;10.57;;;6.38;;
67585;SDS011;55785;47.946;20.540;2023-07-24T14:01:16;12.35;;;6.60;;
67585;SDS011;55785;47.946;20.540;2023-07-24T14:03:42;9.98;;;5.97;;
67585;SDS011;55785;47.946;20.540;2023-07-24T14:06:07;10.07;;;5.45;;
67585;SDS011;55785;47.946;20.540;2023-07-24T14:08:32;7.63;;;5.25;;
67585;SDS011;55785;47.946;20.540;2023-07-24T14:10:58;12.45;;;5.80;;
67585;SDS011;55785;47.946;20.540;2023-07-24T14:13:23;9.68;;;6.10;;
67585;SDS011;55785;47.946;20.540;2023-07-24T14:15:49;10.00;;;6.07;;
67585;SDS011;55785;47.946;20.540;2023-07-24T14:18:14;11.35;;;5.90;;
67585;SDS011;55785;47.946;20.540;2023-07-24T14:20:40;9.13;;;5.80;;
67585;SDS011;55785;47.946;20.540;2023-07-24T14:23:05;10.18;;;6.00;;
67585;SDS011;55785;47.946;20.540;2023-07-24T14:25:31;9.00;;;6.18;;
67585;SDS011;55785;47.946;20.540;2023-07-24T14:27:56;9.98;;;6.20;;
67585;SDS011;55785;47.946;20.540;2023-07-24T14:30:22;11.57;;;5.75;;